createdAt,value
2022-09-14T00:04:56.417Z,12.7
2022-09-14T00:09:56.560Z,11.6
2022-09-14T00:14:57.394Z,11.2
2022-09-14T00:19:56.895Z,11.2
2022-09-14T00:24:56.434Z,11.2
2022-09-14T00:29:56.402Z,11.2
2022-09-14T00:34:56.377Z,11
2022-09-14T00:39:56.792Z,11.2
2022-09-14T00:44:56.398Z,11.2
2022-09-14T00:49:56.384Z,11.2
2022-09-14T00:54:56.379Z,11.2
2022-09-14T00:59:56.463Z,11.5
2022-09-14T01:04:56.403Z,11.7
2022-09-14T01:09:56.391Z,11.7
2022-09-14T01:14:56.395Z,11.7
2022-09-14T01:19:56.397Z,10.9
2022-09-14T01:24:56.659Z,10.9
2022-09-14T01:29:56.378Z,11.1
2022-09-14T01:34:56.395Z,11.1
2022-09-14T01:39:56.484Z,11.1
2022-09-14T01:44:56.402Z,11.6
2022-09-14T01:49:56.424Z,11.6
2022-09-14T01:54:56.440Z,12.6
2022-09-14T01:59:56.414Z,13
2022-09-14T02:04:56.374Z,13
2022-09-14T02:09:56.404Z,14.3
2022-09-14T02:14:56.383Z,15
2022-09-14T02:19:56.634Z,15.6
2022-09-14T02:25:06.696Z,17.6
2022-09-14T02:29:56.516Z,18.2
2022-09-14T02:34:56.488Z,18.6
2022-09-14T02:39:56.490Z,20.7
2022-09-14T02:44:56.694Z,20.8
2022-09-14T02:49:56.472Z,20.8
2022-09-14T02:54:56.445Z,20.8
2022-09-14T02:59:56.494Z,20.7
2022-09-14T03:04:56.455Z,20.3
2022-09-14T03:09:56.415Z,20.3
2022-09-14T03:14:56.496Z,19.8
2022-09-14T03:19:56.492Z,19.8
2022-09-14T03:24:56.429Z,19.8
2022-09-14T03:29:56.433Z,19.8
2022-09-14T03:34:56.447Z,23.1
2022-09-14T03:39:56.451Z,25.1
2022-09-14T03:44:57.554Z,25.5
2022-09-14T03:49:56.945Z,28.7
2022-09-14T03:54:56.442Z,29.4
2022-09-14T03:59:57.375Z,29.8
2022-09-14T04:04:56.443Z,33.7
2022-09-14T04:09:56.450Z,35.7
2022-09-14T04:14:56.420Z,35.7
2022-09-14T04:19:56.419Z,35.7
2022-09-14T04:24:56.448Z,35.7
2022-09-14T04:29:56.473Z,36.1
2022-09-14T04:34:56.473Z,36.2
2022-09-14T04:39:56.568Z,36.1
2022-09-14T04:44:56.486Z,36.2
2022-09-14T04:49:56.441Z,36.2
2022-09-14T04:54:56.999Z,35.8
2022-09-14T04:59:56.456Z,36.2
2022-09-14T05:04:56.501Z,35.8
2022-09-14T05:09:56.451Z,35.6
2022-09-14T05:14:56.500Z,35.8
2022-09-14T05:19:56.477Z,35.8
2022-09-14T05:25:02.081Z,36.2
2022-09-14T05:29:57.480Z,39.2
2022-09-14T05:34:56.523Z,39.2
2022-09-14T05:39:56.511Z,39.2
2022-09-14T05:44:57.999Z,39.2
2022-09-14T05:49:56.949Z,39.2
2022-09-14T05:54:56.494Z,38.4
2022-09-14T05:59:56.482Z,38.4
2022-09-14T06:04:56.784Z,38.4
2022-09-14T06:09:56.535Z,38.4
2022-09-14T06:14:56.504Z,38.4
2022-09-14T06:19:58.297Z,38.4
2022-09-14T06:24:56.767Z,36
2022-09-14T06:29:56.568Z,36
2022-09-14T06:34:56.479Z,35.3
2022-09-14T06:39:56.512Z,35.3
2022-09-14T06:44:56.485Z,35.3
2022-09-14T06:49:56.455Z,35.3
2022-09-14T06:54:57.449Z,36.1
2022-09-14T06:59:56.497Z,36.4
2022-09-14T07:04:56.507Z,36.5
2022-09-14T07:09:56.525Z,36.6
2022-09-14T07:14:56.531Z,36.6
2022-09-14T07:19:56.496Z,39.3
2022-09-14T07:24:56.640Z,39.3
2022-09-14T07:29:56.556Z,39.3
2022-09-14T07:34:56.529Z,39.3
2022-09-14T07:39:56.567Z,37.1
2022-09-14T07:44:56.519Z,34.9
2022-09-14T07:49:56.513Z,37.1
2022-09-14T07:54:57.546Z,34.9
2022-09-14T07:59:56.547Z,34.7
2022-09-14T08:04:57.557Z,31.4
2022-09-14T08:09:56.537Z,31.3
2022-09-14T08:14:56.537Z,26.3
2022-09-14T08:19:56.502Z,26
2022-09-14T08:24:56.529Z,25.6
2022-09-14T08:29:56.523Z,24.4
2022-09-14T08:34:56.530Z,24
2022-09-14T08:39:56.543Z,24
2022-09-14T08:44:56.519Z,23.6
2022-09-14T08:49:56.551Z,22
2022-09-14T08:54:56.521Z,21.1
2022-09-14T08:59:56.519Z,19.3
2022-09-14T09:04:56.533Z,19.2
2022-09-14T09:09:56.539Z,19.2
2022-09-14T09:14:56.586Z,18.4
2022-09-14T09:19:56.530Z,16.4
2022-09-14T23:59:56.895Z,127.2
